createdAt,value
2023-02-09T00:02:39.467Z,7.77
2023-02-09T00:07:41.066Z,8.00
2023-02-09T00:13:01.398Z,7.93
2023-02-09T00:18:02.960Z,7.50
2023-02-09T00:23:04.532Z,7.47
2023-02-09T00:28:06.555Z,8.47
2023-02-09T00:33:08.145Z,7.90
2023-02-09T00:38:11.249Z,7.70
2023-02-09T00:43:12.910Z,8.13
2023-02-09T00:48:14.501Z,7.43
2023-02-09T00:53:16.243Z,7.60
2023-02-09T00:58:18.427Z,7.87
2023-02-09T01:03:19.973Z,8.10
2023-02-09T01:08:21.562Z,8.17
2023-02-09T01:13:23.106Z,7.50
2023-02-09T01:18:24.662Z,8.07
2023-02-09T01:23:26.238Z,7.17
2023-02-09T01:28:27.850Z,8.03
2023-02-09T01:33:30.595Z,7.50
2023-02-09T01:38:32.209Z,7.80
2023-02-09T01:43:57.999Z,7.57
2023-02-09T01:49:05.039Z,8.00
2023-02-09T01:54:10.196Z,7.67
2023-02-09T01:59:11.986Z,7.73
2023-02-09T02:04:14.553Z,7.67
2023-02-09T02:09:17.252Z,8.07
2023-02-09T02:14:32.963Z,8.40
2023-02-09T02:19:49.772Z,8.00
2023-02-09T02:25:16.441Z,7.40
2023-02-09T02:30:41.965Z,8.20
2023-02-09T02:35:52.149Z,8.17
2023-02-09T02:41:20.368Z,9.00
2023-02-09T02:46:33.031Z,7.53
2023-02-09T02:51:43.617Z,8.53
2023-02-09T02:56:55.031Z,8.70
2023-02-09T03:02:01.012Z,9.60
2023-02-09T03:07:06.989Z,10.20
2023-02-09T03:12:17.672Z,10.50
2023-02-09T03:17:32.900Z,10.23
2023-02-09T03:22:39.990Z,10.10
2023-02-09T03:27:44.864Z,10.27
2023-02-09T03:32:46.925Z,10.70
2023-02-09T03:37:48.511Z,10.70
2023-02-09T03:42:50.160Z,11.10
2023-02-09T03:47:51.784Z,10.73
2023-02-09T03:52:53.356Z,10.50
2023-02-09T03:57:54.982Z,10.40
2023-02-09T04:02:56.564Z,10.63
2023-02-09T04:08:00.430Z,10.93
2023-02-09T04:13:02.092Z,9.60
2023-02-09T04:18:03.735Z,11.60
2023-02-09T04:23:05.313Z,11.30
2023-02-09T04:28:07.063Z,12.00
2023-02-09T04:33:08.634Z,12.20
2023-02-09T04:38:10.199Z,12.47
2023-02-09T04:43:11.877Z,11.13
2023-02-09T04:48:15.714Z,12.87
2023-02-09T04:53:17.943Z,11.87
2023-02-09T04:58:39.410Z,12.30
2023-02-09T05:03:42.497Z,12.87
2023-02-09T05:08:44.412Z,12.43
2023-02-09T05:13:46.251Z,12.80
2023-02-09T05:18:50.276Z,11.70
2023-02-09T05:23:51.919Z,11.97
2023-02-09T05:28:53.544Z,11.53
2023-02-09T05:33:55.106Z,10.53
2023-02-09T05:38:56.721Z,10.90
2023-02-09T05:43:58.439Z,11.10
2023-02-09T05:49:00.140Z,14.30
2023-02-09T05:54:01.779Z,10.80
2023-02-09T05:59:04.616Z,11.40
2023-02-09T06:04:06.983Z,11.00
2023-02-09T06:09:08.612Z,11.10
2023-02-09T06:14:10.613Z,11.63
2023-02-09T06:19:17.717Z,12.33
2023-02-09T06:24:19.284Z,12.80
2023-02-09T06:29:20.843Z,12.30
2023-02-09T06:34:22.465Z,12.47
2023-02-09T06:39:24.311Z,13.33
2023-02-09T06:44:25.883Z,12.93
2023-02-09T06:49:27.510Z,13.00
2023-02-09T06:54:29.316Z,12.30
2023-02-09T06:59:30.876Z,11.63
2023-02-09T07:04:32.408Z,11.70
2023-02-09T07:09:34.103Z,12.30
2023-02-09T07:14:35.692Z,12.13
2023-02-09T07:19:37.296Z,12.13
2023-02-09T07:24:38.871Z,12.00
2023-02-09T07:29:40.511Z,12.37
2023-02-09T07:34:42.096Z,12.70
2023-02-09T07:39:44.170Z,13.87
2023-02-09T07:44:45.819Z,13.27
2023-02-09T07:49:47.405Z,13.63
2023-02-09T07:54:50.617Z,14.33
2023-02-09T07:59:52.145Z,13.90
2023-02-09T08:04:56.000Z,14.63
2023-02-09T08:09:57.594Z,13.73
2023-02-09T08:14:59.402Z,14.73
2023-02-09T08:20:05.991Z,15.17
2023-02-09T08:25:08.350Z,17.03
2023-02-09T08:30:11.158Z,16.83
2023-02-09T08:35:12.827Z,16.43
2023-02-09T08:40:15.179Z,17.70
2023-02-09T08:45:16.888Z,16.10
2023-02-09T08:50:18.590Z,15.17
2023-02-09T08:55:20.148Z,14.07
2023-02-09T09:00:21.846Z,13.30
2023-02-09T09:05:23.403Z,13.53
2023-02-09T09:10:25.006Z,13.27
2023-02-09T09:15:26.544Z,12.13
2023-02-09T09:20:28.418Z,12.63
2023-02-09T09:25:30.036Z,13.27
2023-02-09T09:30:32.101Z,12.43
2023-02-09T09:35:33.674Z,12.67
2023-02-09T09:40:37.720Z,13.23
2023-02-09T09:45:39.664Z,12.33
2023-02-09T09:50:42.902Z,12.30
2023-02-09T09:55:45.314Z,11.43
2023-02-09T10:00:47.805Z,11.83
2023-02-09T10:05:55.498Z,10.77
2023-02-09T10:11:06.793Z,11.90
2023-02-09T10:16:17.303Z,10.97
2023-02-09T10:21:19.482Z,11.10
2023-02-09T10:26:24.132Z,10.80
2023-02-09T10:31:34.419Z,10.93
2023-02-09T10:36:38.286Z,10.37
2023-02-09T10:41:41.959Z,10.87
2023-02-09T10:46:43.580Z,9.90
2023-02-09T10:51:45.152Z,10.53
2023-02-09T10:56:48.608Z,9.53
2023-02-09T11:01:58.504Z,9.93
2023-02-09T11:07:02.879Z,10.03
2023-02-09T11:12:04.660Z,9.43
2023-02-09T11:17:24.243Z,10.17
2023-02-09T11:22:34.910Z,8.83
2023-02-09T11:28:04.325Z,9.43
2023-02-09T11:33:20.833Z,8.70
2023-02-09T11:38:37.038Z,8.17
2023-02-09T11:43:41.016Z,9.97
2023-02-09T11:48:48.817Z,9.23
2023-02-09T11:53:53.051Z,7.93
2023-02-09T11:58:57.369Z,8.30
2023-02-09T12:04:25.073Z,8.20
2023-02-09T12:09:39.047Z,8.10
2023-02-09T12:14:44.231Z,7.77
2023-02-09T12:19:54.939Z,7.93
2023-02-09T12:25:05.847Z,8.00
2023-02-09T12:30:41.418Z,8.37
2023-02-09T12:35:44.154Z,9.13
2023-02-09T12:41:04.386Z,9.50
2023-02-09T12:46:31.009Z,9.93
2023-02-09T12:51:47.789Z,10.23
2023-02-09T12:56:49.374Z,10.70
2023-02-09T13:02:06.226Z,10.60
2023-02-09T13:07:31.640Z,10.97
2023-02-09T13:12:38.005Z,9.77
2023-02-09T13:18:06.535Z,11.43
2023-02-09T13:23:29.308Z,11.67
2023-02-09T13:28:30.991Z,11.97
2023-02-09T13:33:44.489Z,11.73
2023-02-09T13:38:46.408Z,11.27
2023-02-09T13:43:48.231Z,10.70
2023-02-09T13:48:49.817Z,9.83
2023-02-09T13:53:59.945Z,9.83
2023-02-09T13:59:01.615Z,9.87
2023-02-09T14:04:19.945Z,10.47
2023-02-09T14:09:25.104Z,10.60
2023-02-09T14:14:49.408Z,9.73
2023-02-09T14:19:52.225Z,9.20
2023-02-09T14:24:53.888Z,10.17
2023-02-09T14:29:55.943Z,10.43
2023-02-09T14:34:57.576Z,10.57
2023-02-09T14:40:04.372Z,10.60
2023-02-09T14:45:14.744Z,10.97
2023-02-09T14:50:22.008Z,11.53
2023-02-09T14:55:28.541Z,11.03
2023-02-09T15:00:30.143Z,11.03
2023-02-09T15:05:31.713Z,10.60
2023-02-09T15:10:36.440Z,10.33
2023-02-09T15:15:39.684Z,11.77
2023-02-09T15:20:41.320Z,11.47
2023-02-09T15:25:43.674Z,11.73
2023-02-09T15:30:45.816Z,12.50
2023-02-09T15:35:48.349Z,12.53
2023-02-09T15:41:09.085Z,12.13
2023-02-09T15:46:10.842Z,12.77
2023-02-09T15:51:12.555Z,12.00
2023-02-09T15:56:14.943Z,12.07
2023-02-09T16:01:17.422Z,12.37
2023-02-09T16:06:26.968Z,10.93
2023-02-09T16:11:35.156Z,12.20
2023-02-09T16:16:37.382Z,12.43
2023-02-09T16:21:39.365Z,12.60
2023-02-09T16:26:41.123Z,12.13
2023-02-09T16:31:42.798Z,12.77
2023-02-09T16:36:45.301Z,13.27
2023-02-09T16:41:47.856Z,12.37
2023-02-09T16:46:52.570Z,12.83
2023-02-09T16:51:56.288Z,12.43
2023-02-09T16:56:57.891Z,12.13
2023-02-09T17:01:59.977Z,12.67
2023-02-09T17:07:01.608Z,12.87
2023-02-09T17:18:39.674Z,13.33
2023-02-09T17:23:42.682Z,13.10
2023-02-09T17:28:44.293Z,13.07
2023-02-09T17:33:47.720Z,12.47
2023-02-09T17:38:50.284Z,13.03
2023-02-09T17:43:52.851Z,13.33
2023-02-09T17:48:54.435Z,14.40
2023-02-09T17:53:55.995Z,13.90
2023-02-09T17:58:57.826Z,14.67
2023-02-09T18:04:02.715Z,14.40
2023-02-09T18:09:07.038Z,14.63
2023-02-09T18:14:12.489Z,14.77
2023-02-09T18:19:14.318Z,14.63
2023-02-09T18:24:16.754Z,15.17
2023-02-09T18:29:20.259Z,15.00
2023-02-09T18:34:22.075Z,15.13
2023-02-09T18:39:23.657Z,14.63
2023-02-09T18:44:29.182Z,14.47
2023-02-09T18:49:31.102Z,15.47
2023-02-09T18:54:33.562Z,13.63
2023-02-09T18:59:36.194Z,14.20
2023-02-09T19:04:37.801Z,14.67
2023-02-09T19:09:40.433Z,14.80
2023-02-09T19:14:45.439Z,14.77
2023-02-09T19:19:47.824Z,14.17
2023-02-09T19:24:51.284Z,14.57
2023-02-09T19:29:55.773Z,14.87
2023-02-09T19:34:57.403Z,13.77
2023-02-09T19:40:07.273Z,13.67
2023-02-09T19:45:09.305Z,12.93
2023-02-09T19:50:11.307Z,15.43
2023-02-09T19:55:13.684Z,15.23
2023-02-09T20:00:18.145Z,15.27
2023-02-09T20:05:19.719Z,15.33
2023-02-09T20:10:23.823Z,15.23
2023-02-09T20:15:25.545Z,15.63
2023-02-09T20:20:27.145Z,15.70
2023-02-09T20:25:29.427Z,14.83
2023-02-09T20:30:31.492Z,15.17
2023-02-09T20:35:33.075Z,14.97
2023-02-09T20:40:35.167Z,14.73
2023-02-09T20:45:55.449Z,13.83
2023-02-09T20:50:57.143Z,14.27
2023-02-09T20:55:59.186Z,13.27
2023-02-09T21:01:00.824Z,14.73
2023-02-09T21:06:02.450Z,13.73
2023-02-09T21:11:04.334Z,13.93
2023-02-09T21:16:05.956Z,14.47
2023-02-09T21:21:08.787Z,13.20
2023-02-09T21:26:13.981Z,14.27
2023-02-09T21:31:18.487Z,14.30
2023-02-09T21:36:20.139Z,13.27
2023-02-09T21:41:42.381Z,14.17
2023-02-09T21:46:44.061Z,14.37
2023-02-09T21:51:45.785Z,13.93
2023-02-09T21:56:47.358Z,14.93
2023-02-09T22:01:48.931Z,14.40
2023-02-09T22:06:50.551Z,14.77
2023-02-09T22:11:52.182Z,14.70
2023-02-09T22:16:53.745Z,14.30
2023-02-09T22:21:57.895Z,14.90
2023-02-09T22:26:59.508Z,13.63
2023-02-09T22:32:01.126Z,14.03
2023-02-09T22:37:02.739Z,15.93
2023-02-09T22:42:04.683Z,15.40
2023-02-09T22:47:06.252Z,14.83
2023-02-09T22:52:08.705Z,13.43
2023-02-09T22:57:10.335Z,12.77
2023-02-09T23:02:12.678Z,13.03
2023-02-09T23:07:14.387Z,13.30
2023-02-09T23:12:16.000Z,15.00
2023-02-09T23:17:17.570Z,14.77
2023-02-09T23:22:19.226Z,15.27
2023-02-09T23:27:20.763Z,15.10
2023-02-09T23:32:22.322Z,16.27
2023-02-09T23:37:37.355Z,15.77
2023-02-09T23:42:39.610Z,16.53
2023-02-09T23:47:41.244Z,16.23
2023-02-09T23:52:42.895Z,15.87
2023-02-09T23:57:44.482Z,16.23
